Details From YBTL - Townsville Intl
To YBMA - Mount Isa
Flight Number -
Tags decoded
Created
Modified
Stats Distance 438 nm / 812 km
Max Altitude 0 ft / 0 m
Waypoints 4
Social Downloads 1
Likes 0
Share

Download

Looking for another format? Having issues loading an existing format? Contact us
Advertisement - Login to hide

Notes

Requested: YBTL TL Q30 ANRUB Q71 DOBGO W469 HUG W685 CCY/N0273F220 YBMA Unmatched points: ANRUB DOBGO CCY/N0273F220

Route

YBTL TL HUG YBMA

ID Type Via Altitude (ft/m) Position (lat/lon) Dist (leg/tot) Name
O YBTL APT - 0 / 0 -19.25140 / 146.76500 - / 0 nm Townsville Intl
TL DME - 0 / 0 -19.24500 / 146.75800 0 / 0 nm TOWNSVILLE VOR-DME
HUG NDB - 0 / 0 -20.82060 / 144.22900 171 / 171 nm HUGHENDEN
O YBMA APT - 0 / 0 -20.66640 / 139.48800 266 / 438 nm Mount Isa

Altitude Profile

Advertisement - Login to hide

Weather


0- 5 10 15 20 25 30 35+ Temperature / °C

Clouds and Precipitation
Forecast for 2020-07-07 06:00 UTC. Updated 3 hours ago

Ground ~20,000 ft ~40,000 ft Winds

YBTL

Details ICAO YBTL (TSV)
Name Townsville Intl
Region Australia
Timezone Australia/Brisbane (UTC+10.0)
Stats Elevation 18 ft / 5 m (AMSL)
Location -19.251300° 146.765000°
Runways 2
Magnetic Variation 7.317° E

METAR

YBTL 070630Z AUTO 09014KT 9999 // BKN071 23/15 Q1019

Decode

TAF

TAF YBTL 070501Z 0706/0806 09014KT 9999 FEW035 BKN065 FM070900 13010KT 9999 FEW025 SCT050 FM071400 17007KT 9999 SCT022 SCT045 FM080200 10014KT 9999 FEW030 BKN050

Decode

Departure Runways

ID Width Length Bearing (true/mag) Surface Threshold Overrun Markings Lighting
01 148 ft / 45 m 8,022 ft / 2,445 m 23.99° / 16.68° ASPHALT 0 ft / 0 m 0 ft / 0 m PREC-APP CENTERLINE EDGE THRESHOLD SALS TDZ
07 98 ft / 30 m 3,607 ft / 1,099 m 73.73° / 66.41° ASPHALT 0 ft / 0 m 0 ft / 0 m PREC-APP EDGE THRESHOLD
19 148 ft / 45 m 8,022 ft / 2,445 m 203.99° / 196.67° ASPHALT 0 ft / 0 m 0 ft / 0 m PREC-APP CENTERLINE EDGE THRESHOLD
25 98 ft / 30 m 3,607 ft / 1,099 m 253.73° / 246.41° ASPHALT 0 ft / 0 m 0 ft / 0 m PREC-APP EDGE THRESHOLD

YBMA

Details ICAO YBMA (ISA)
Name Mount Isa
Region Australia
Timezone Australia/Brisbane (UTC+10.0)
Stats Elevation 1,121 ft / 342 m (AMSL)
Location -20.666400° 139.488000°
Runways 1
Magnetic Variation 5.569° E

METAR

YBMA 070630Z AUTO 16006KT 9999 // NCD 25/M04 Q1019 RF00.0/000.0

Decode

TAF

TAF TAF YBMA 070505Z 0706/0718 14010KT CAVOK FM071000 17010KT CAVOK

Decode

Destination Runways

ID Width Length Bearing (true/mag) Surface Threshold Overrun Markings Lighting
16 148 ft / 45 m 8,859 ft / 2,700 m 167.80° / 162.23° ASPHALT 210 ft / 64 m 79 ft / 24 m APP EDGE THRESHOLD
34 148 ft / 45 m 8,859 ft / 2,700 m 347.80° / 342.23° ASPHALT 213 ft / 65 m 49 ft / 15 m APP EDGE THRESHOLD

Popular Alternatives